Phnom Penh, Cambodia
Current Conditions -  °F | °C
As of 2:30 PM on Friday 24 Oct 2014 (Local Time) from VDPP Reporting Station
Broken Clouds Broken Clouds  
Wind Chill: 30°   Ceiling: 4000
Heat Index: 36°   Visibility: 6mi
Dew Point: 25°   Wind: 5mph
Humidity: 74%   Direction: 180°S
Pressure: 29.74"   Gusts: NA
Location:  11.56°N, 104.92°E
Report Text: VDPP 240730Z 18004KT 140V210 9999 SCT015 FEW017CB BKN040 30/25 Q1007 CB:SWN
Loading
Personal Weather Stations






























Interactive Weather Map New forecast layout! Learn more

10-Day Weather Forecast

Advertisements
Track Severe Weather on mobile